sensor_id;sensor_type;location;lat;lon;timestamp;P1;durP1;ratioP1;P2;durP2;ratioP2
71462;SDS011;59266;52.608;13.260;2023-05-10T00:02:08;9.80;;;5.07;;
71462;SDS011;59266;52.608;13.260;2023-05-10T00:04:34;9.80;;;4.85;;
71462;SDS011;59266;52.608;13.260;2023-05-10T00:07:01;10.50;;;4.22;;
71462;SDS011;59266;52.608;13.260;2023-05-10T00:09:29;9.10;;;4.38;;
71462;SDS011;59266;52.608;13.260;2023-05-10T00:11:58;12.13;;;4.07;;
71462;SDS011;59266;52.608;13.260;2023-05-10T00:14:26;12.00;;;5.00;;
71462;SDS011;59266;52.608;13.260;2023-05-10T00:16:53;11.45;;;4.63;;
71462;SDS011;59266;52.608;13.260;2023-05-10T00:19:19;9.52;;;4.53;;
71462;SDS011;59266;52.608;13.260;2023-05-10T00:21:48;10.95;;;4.95;;
71462;SDS011;59266;52.608;13.260;2023-05-10T00:24:16;11.85;;;4.22;;
71462;SDS011;59266;52.608;13.260;2023-05-10T00:26:44;11.50;;;4.70;;
71462;SDS011;59266;52.608;13.260;2023-05-10T00:29:11;9.73;;;4.20;;
71462;SDS011;59266;52.608;13.260;2023-05-10T00:31:40;10.63;;;5.13;;
71462;SDS011;59266;52.608;13.260;2023-05-10T00:34:06;9.85;;;4.65;;
71462;SDS011;59266;52.608;13.260;2023-05-10T00:36:33;12.90;;;4.80;;
71462;SDS011;59266;52.608;13.260;2023-05-10T00:38:59;11.88;;;4.38;;
71462;SDS011;59266;52.608;13.260;2023-05-10T00:41:26;10.88;;;4.82;;
71462;SDS011;59266;52.608;13.260;2023-05-10T00:43:58;18.45;;;6.03;;
71462;SDS011;59266;52.608;13.260;2023-05-10T00:46:27;10.20;;;4.95;;
71462;SDS011;59266;52.608;13.260;2023-05-10T00:48:55;11.85;;;4.78;;
71462;SDS011;59266;52.608;13.260;2023-05-10T00:51:22;10.02;;;4.72;;
71462;SDS011;59266;52.608;13.260;2023-05-10T00:53:48;11.85;;;4.80;;
71462;SDS011;59266;52.608;13.260;2023-05-10T00:56:16;10.40;;;4.80;;
71462;SDS011;59266;52.608;13.260;2023-05-10T00:58:43;8.70;;;4.57;;
71462;SDS011;59266;52.608;13.260;2023-05-10T01:01:10;9.98;;;4.82;;
71462;SDS011;59266;52.608;13.260;2023-05-10T01:03:37;9.77;;;4.90;;
71462;SDS011;59266;52.608;13.260;2023-05-10T01:06:04;11.20;;;4.93;;
71462;SDS011;59266;52.608;13.260;2023-05-10T01:08:31;10.38;;;4.72;;
71462;SDS011;59266;52.608;13.260;2023-05-10T01:10:58;10.02;;;4.88;;
71462;SDS011;59266;52.608;13.260;2023-05-10T01:15:54;11.40;;;4.97;;
71462;SDS011;59266;52.608;13.260;2023-05-10T01:18:21;10.48;;;5.15;;
71462;SDS011;59266;52.608;13.260;2023-05-10T01:20:48;9.55;;;4.85;;
71462;SDS011;59266;52.608;13.260;2023-05-10T01:23:31;9.55;;;4.55;;
71462;SDS011;59266;52.608;13.260;2023-05-10T01:26:26;10.25;;;5.13;;
71462;SDS011;59266;52.608;13.260;2023-05-10T01:32:46;12.88;;;4.93;;
71462;SDS011;59266;52.608;13.260;2023-05-10T01:35:34;9.45;;;4.55;;
71462;SDS011;59266;52.608;13.260;2023-05-10T01:38:26;13.02;;;5.28;;
71462;SDS011;59266;52.608;13.260;2023-05-10T01:41:31;9.63;;;4.93;;
71462;SDS011;59266;52.608;13.260;2023-05-10T01:46:53;9.80;;;4.68;;
71462;SDS011;59266;52.608;13.260;2023-05-10T01:49:53;20.98;;;4.63;;
71462;SDS011;59266;52.608;13.260;2023-05-10T01:52:41;10.95;;;4.55;;
71462;SDS011;59266;52.608;13.260;2023-05-10T01:55:13;11.27;;;4.95;;
71462;SDS011;59266;52.608;13.260;2023-05-10T01:57:42;10.48;;;4.88;;
71462;SDS011;59266;52.608;13.260;2023-05-10T02:00:11;14.38;;;4.75;;
71462;SDS011;59266;52.608;13.260;2023-05-10T02:02:40;11.48;;;5.05;;
71462;SDS011;59266;52.608;13.260;2023-05-10T02:07:40;9.55;;;4.90;;
71462;SDS011;59266;52.608;13.260;2023-05-10T02:10:09;15.52;;;4.97;;
71462;SDS011;59266;52.608;13.260;2023-05-10T02:12:37;9.77;;;4.75;;
71462;SDS011;59266;52.608;13.260;2023-05-10T02:15:09;9.68;;;5.22;;
71462;SDS011;59266;52.608;13.260;2023-05-10T02:17:38;8.60;;;4.60;;
71462;SDS011;59266;52.608;13.260;2023-05-10T02:20:06;10.77;;;4.47;;
71462;SDS011;59266;52.608;13.260;2023-05-10T02:22:35;11.82;;;4.70;;
71462;SDS011;59266;52.608;13.260;2023-05-10T02:25:03;10.90;;;4.70;;
71462;SDS011;59266;52.608;13.260;2023-05-10T02:27:33;10.48;;;5.03;;
71462;SDS011;59266;52.608;13.260;2023-05-10T02:30:01;10.35;;;4.78;;
71462;SDS011;59266;52.608;13.260;2023-05-10T02:32:30;10.80;;;5.10;;
71462;SDS011;59266;52.608;13.260;2023-05-10T02:34:58;9.98;;;4.85;;
71462;SDS011;59266;52.608;13.260;2023-05-10T02:37:30;11.50;;;5.45;;
71462;SDS011;59266;52.608;13.260;2023-05-10T02:39:58;9.73;;;4.72;;
71462;SDS011;59266;52.608;13.260;2023-05-10T02:42:27;9.25;;;4.43;;
71462;SDS011;59266;52.608;13.260;2023-05-10T02:45:12;10.68;;;5.05;;
71462;SDS011;59266;52.608;13.260;2023-05-10T02:47:41;9.10;;;4.38;;
71462;SDS011;59266;52.608;13.260;2023-05-10T02:50:08;10.07;;;4.65;;
71462;SDS011;59266;52.608;13.260;2023-05-10T02:52:37;10.80;;;4.35;;
71462;SDS011;59266;52.608;13.260;2023-05-10T02:55:06;9.10;;;4.80;;
71462;SDS011;59266;52.608;13.260;2023-05-10T02:57:36;10.18;;;5.13;;
71462;SDS011;59266;52.608;13.260;2023-05-10T03:00:07;10.27;;;4.45;;
71462;SDS011;59266;52.608;13.260;2023-05-10T03:02:34;9.15;;;4.60;;
71462;SDS011;59266;52.608;13.260;2023-05-10T03:05:02;16.77;;;5.32;;
71462;SDS011;59266;52.608;13.260;2023-05-10T03:07:31;10.95;;;4.60;;
71462;SDS011;59266;52.608;13.260;2023-05-10T03:09:58;12.40;;;5.15;;
71462;SDS011;59266;52.608;13.260;2023-05-10T03:15:37;10.40;;;4.88;;
71462;SDS011;59266;52.608;13.260;2023-05-10T03:21:18;14.15;;;4.95;;
71462;SDS011;59266;52.608;13.260;2023-05-10T03:23:56;12.20;;;4.53;;
71462;SDS011;59266;52.608;13.260;2023-05-10T03:26:30;9.27;;;4.50;;
71462;SDS011;59266;52.608;13.260;2023-05-10T03:28:58;10.35;;;4.85;;
71462;SDS011;59266;52.608;13.260;2023-05-10T03:31:26;12.18;;;4.85;;
71462;SDS011;59266;52.608;13.260;2023-05-10T03:34:01;9.13;;;4.47;;
71462;SDS011;59266;52.608;13.260;2023-05-10T03:36:30;11.40;;;4.40;;
71462;SDS011;59266;52.608;13.260;2023-05-10T03:38:58;9.55;;;4.10;;
71462;SDS011;59266;52.608;13.260;2023-05-10T03:41:25;10.38;;;4.32;;
71462;SDS011;59266;52.608;13.260;2023-05-10T03:43:53;12.80;;;4.43;;
71462;SDS011;59266;52.608;13.260;2023-05-10T03:46:20;9.35;;;4.28;;
71462;SDS011;59266;52.608;13.260;2023-05-10T03:48:47;12.23;;;4.32;;
71462;SDS011;59266;52.608;13.260;2023-05-10T03:51:13;10.65;;;4.20;;
71462;SDS011;59266;52.608;13.260;2023-05-10T03:53:42;11.20;;;4.60;;
71462;SDS011;59266;52.608;13.260;2023-05-10T03:56:09;11.48;;;4.32;;
71462;SDS011;59266;52.608;13.260;2023-05-10T03:58:36;11.48;;;4.63;;
71462;SDS011;59266;52.608;13.260;2023-05-10T04:01:02;11.07;;;4.47;;
71462;SDS011;59266;52.608;13.260;2023-05-10T04:03:30;9.90;;;4.35;;
71462;SDS011;59266;52.608;13.260;2023-05-10T04:05:58;9.75;;;4.30;;
71462;SDS011;59266;52.608;13.260;2023-05-10T04:08:26;12.27;;;4.68;;
71462;SDS011;59266;52.608;13.260;2023-05-10T04:10:53;12.00;;;4.38;;
71462;SDS011;59266;52.608;13.260;2023-05-10T04:13:19;8.85;;;4.43;;
71462;SDS011;59266;52.608;13.260;2023-05-10T04:15:47;9.85;;;4.18;;
71462;SDS011;59266;52.608;13.260;2023-05-10T04:18:14;9.18;;;4.35;;
71462;SDS011;59266;52.608;13.260;2023-05-10T04:20:41;9.73;;;4.40;;
71462;SDS011;59266;52.608;13.260;2023-05-10T04:23:07;9.18;;;4.05;;
71462;SDS011;59266;52.608;13.260;2023-05-10T04:25:34;13.18;;;4.72;;
71462;SDS011;59266;52.608;13.260;2023-05-10T04:28:01;9.10;;;4.45;;
71462;SDS011;59266;52.608;13.260;2023-05-10T04:30:29;9.48;;;4.50;;
71462;SDS011;59266;52.608;13.260;2023-05-10T04:32:56;12.18;;;4.68;;
71462;SDS011;59266;52.608;13.260;2023-05-10T04:35:23;9.90;;;4.47;;
71462;SDS011;59266;52.608;13.260;2023-05-10T04:37:51;10.80;;;4.13;;
71462;SDS011;59266;52.608;13.260;2023-05-10T04:40:17;8.40;;;3.80;;
71462;SDS011;59266;52.608;13.260;2023-05-10T04:42:44;8.93;;;4.15;;
71462;SDS011;59266;52.608;13.260;2023-05-10T04:45:12;10.70;;;4.78;;
71462;SDS011;59266;52.608;13.260;2023-05-10T04:47:40;9.43;;;4.22;;
71462;SDS011;59266;52.608;13.260;2023-05-10T04:50:10;10.90;;;4.18;;
71462;SDS011;59266;52.608;13.260;2023-05-10T04:52:37;9.45;;;4.15;;
71462;SDS011;59266;52.608;13.260;2023-05-10T04:55:09;11.82;;;4.05;;
71462;SDS011;59266;52.608;13.260;2023-05-10T04:57:38;10.25;;;4.13;;
71462;SDS011;59266;52.608;13.260;2023-05-10T05:00:06;8.82;;;3.75;;
71462;SDS011;59266;52.608;13.260;2023-05-10T05:02:34;9.70;;;4.22;;
71462;SDS011;59266;52.608;13.260;2023-05-10T05:05:01;8.55;;;4.05;;
71462;SDS011;59266;52.608;13.260;2023-05-10T05:07:28;10.35;;;4.13;;
71462;SDS011;59266;52.608;13.260;2023-05-10T05:09:57;13.75;;;4.82;;
71462;SDS011;59266;52.608;13.260;2023-05-10T05:12:23;8.60;;;3.60;;
71462;SDS011;59266;52.608;13.260;2023-05-10T05:14:50;9.60;;;3.97;;
71462;SDS011;59266;52.608;13.260;2023-05-10T05:17:16;9.82;;;3.97;;
71462;SDS011;59266;52.608;13.260;2023-05-10T05:19:43;11.02;;;4.30;;
71462;SDS011;59266;52.608;13.260;2023-05-10T05:22:09;8.75;;;3.63;;
71462;SDS011;59266;52.608;13.260;2023-05-10T05:24:36;10.75;;;3.65;;
71462;SDS011;59266;52.608;13.260;2023-05-10T05:27:04;9.55;;;3.67;;
71462;SDS011;59266;52.608;13.260;2023-05-10T05:29:32;7.95;;;3.55;;
71462;SDS011;59266;52.608;13.260;2023-05-10T05:32:00;15.90;;;4.38;;
71462;SDS011;59266;52.608;13.260;2023-05-10T05:34:27;9.70;;;4.32;;
71462;SDS011;59266;52.608;13.260;2023-05-10T05:36:54;10.60;;;3.42;;
71462;SDS011;59266;52.608;13.260;2023-05-10T05:39:20;9.20;;;3.60;;
71462;SDS011;59266;52.608;13.260;2023-05-10T05:41:48;10.88;;;3.40;;
71462;SDS011;59266;52.608;13.260;2023-05-10T05:44:15;9.00;;;3.42;;
71462;SDS011;59266;52.608;13.260;2023-05-10T05:46:42;8.73;;;3.30;;
71462;SDS011;59266;52.608;13.260;2023-05-10T05:49:09;8.82;;;3.40;;
71462;SDS011;59266;52.608;13.260;2023-05-10T05:51:36;9.90;;;3.40;;
71462;SDS011;59266;52.608;13.260;2023-05-10T05:54:03;9.95;;;3.20;;
71462;SDS011;59266;52.608;13.260;2023-05-10T05:56:30;8.52;;;3.30;;
71462;SDS011;59266;52.608;13.260;2023-05-10T05:58:57;7.65;;;3.13;;
71462;SDS011;59266;52.608;13.260;2023-05-10T06:01:25;9.73;;;3.03;;
71462;SDS011;59266;52.608;13.260;2023-05-10T06:03:52;10.30;;;3.53;;
71462;SDS011;59266;52.608;13.260;2023-05-10T06:06:19;9.32;;;3.30;;
71462;SDS011;59266;52.608;13.260;2023-05-10T06:08:46;7.63;;;3.33;;
71462;SDS011;59266;52.608;13.260;2023-05-10T06:11:12;9.43;;;3.05;;
71462;SDS011;59266;52.608;13.260;2023-05-10T06:13:39;8.10;;;3.22;;
71462;SDS011;59266;52.608;13.260;2023-05-10T06:16:08;10.30;;;2.92;;
71462;SDS011;59266;52.608;13.260;2023-05-10T06:18:35;8.23;;;3.00;;
71462;SDS011;59266;52.608;13.260;2023-05-10T06:21:02;10.85;;;3.25;;
71462;SDS011;59266;52.608;13.260;2023-05-10T06:23:31;7.57;;;2.90;;
71462;SDS011;59266;52.608;13.260;2023-05-10T06:25:57;6.88;;;2.63;;
71462;SDS011;59266;52.608;13.260;2023-05-10T06:28:24;7.57;;;2.75;;
71462;SDS011;59266;52.608;13.260;2023-05-10T06:30:56;10.32;;;2.65;;
71462;SDS011;59266;52.608;13.260;2023-05-10T06:33:23;8.77;;;2.90;;
71462;SDS011;59266;52.608;13.260;2023-05-10T06:35:50;8.43;;;2.70;;
71462;SDS011;59266;52.608;13.260;2023-05-10T06:38:24;12.07;;;2.53;;
71462;SDS011;59266;52.608;13.260;2023-05-10T06:40:51;7.22;;;2.75;;
71462;SDS011;59266;52.608;13.260;2023-05-10T06:43:18;6.47;;;2.65;;
71462;SDS011;59266;52.608;13.260;2023-05-10T06:45:44;9.27;;;2.72;;
71462;SDS011;59266;52.608;13.260;2023-05-10T06:48:13;6.32;;;2.60;;
71462;SDS011;59266;52.608;13.260;2023-05-10T06:50:41;7.85;;;2.55;;
71462;SDS011;59266;52.608;13.260;2023-05-10T06:53:08;8.02;;;2.95;;
71462;SDS011;59266;52.608;13.260;2023-05-10T06:55:35;6.82;;;2.63;;
71462;SDS011;59266;52.608;13.260;2023-05-10T06:58:09;10.30;;;3.03;;
71462;SDS011;59266;52.608;13.260;2023-05-10T07:00:36;7.10;;;2.80;;
71462;SDS011;59266;52.608;13.260;2023-05-10T07:03:07;7.53;;;2.45;;
71462;SDS011;59266;52.608;13.260;2023-05-10T07:05:35;7.65;;;2.88;;
71462;SDS011;59266;52.608;13.260;2023-05-10T07:08:04;10.20;;;2.70;;
71462;SDS011;59266;52.608;13.260;2023-05-10T07:10:32;7.13;;;2.50;;
71462;SDS011;59266;52.608;13.260;2023-05-10T07:12:59;8.40;;;2.90;;
71462;SDS011;59266;52.608;13.260;2023-05-10T07:15:26;9.30;;;3.00;;
71462;SDS011;59266;52.608;13.260;2023-05-10T07:17:53;5.43;;;2.47;;
71462;SDS011;59266;52.608;13.260;2023-05-10T07:20:22;6.88;;;2.70;;
71462;SDS011;59266;52.608;13.260;2023-05-10T07:22:48;7.93;;;2.45;;
71462;SDS011;59266;52.608;13.260;2023-05-10T07:25:15;8.48;;;2.90;;
71462;SDS011;59266;52.608;13.260;2023-05-10T07:27:42;6.97;;;2.60;;
71462;SDS011;59266;52.608;13.260;2023-05-10T07:30:09;6.60;;;2.50;;
71462;SDS011;59266;52.608;13.260;2023-05-10T07:32:38;6.75;;;3.15;;
71462;SDS011;59266;52.608;13.260;2023-05-10T07:35:05;9.23;;;3.05;;
71462;SDS011;59266;52.608;13.260;2023-05-10T07:37:33;7.18;;;2.13;;
71462;SDS011;59266;52.608;13.260;2023-05-10T07:40:00;8.35;;;2.78;;
71462;SDS011;59266;52.608;13.260;2023-05-10T07:42:27;6.22;;;2.50;;
71462;SDS011;59266;52.608;13.260;2023-05-10T07:44:54;7.53;;;2.30;;
71462;SDS011;59266;52.608;13.260;2023-05-10T07:47:21;7.30;;;2.65;;
71462;SDS011;59266;52.608;13.260;2023-05-10T07:49:47;7.03;;;2.50;;
71462;SDS011;59266;52.608;13.260;2023-05-10T07:52:16;10.02;;;2.78;;
71462;SDS011;59266;52.608;13.260;2023-05-10T07:54:42;5.40;;;2.30;;
71462;SDS011;59266;52.608;13.260;2023-05-10T07:57:09;5.63;;;2.30;;
71462;SDS011;59266;52.608;13.260;2023-05-10T07:59:36;8.15;;;2.50;;
71462;SDS011;59266;52.608;13.260;2023-05-10T08:02:03;8.40;;;2.70;;
71462;SDS011;59266;52.608;13.260;2023-05-10T08:04:30;6.15;;;2.35;;
71462;SDS011;59266;52.608;13.260;2023-05-10T08:06:56;8.52;;;3.03;;
71462;SDS011;59266;52.608;13.260;2023-05-10T08:09:23;9.40;;;2.58;;
71462;SDS011;59266;52.608;13.260;2023-05-10T08:11:51;5.60;;;2.78;;
71462;SDS011;59266;52.608;13.260;2023-05-10T08:14:19;6.25;;;2.50;;
71462;SDS011;59266;52.608;13.260;2023-05-10T08:16:48;5.50;;;2.45;;
71462;SDS011;59266;52.608;13.260;2023-05-10T08:19:15;10.18;;;2.63;;
71462;SDS011;59266;52.608;13.260;2023-05-10T08:21:45;6.43;;;2.50;;
71462;SDS011;59266;52.608;13.260;2023-05-10T08:24:11;8.43;;;2.80;;
71462;SDS011;59266;52.608;13.260;2023-05-10T08:26:38;7.15;;;2.50;;
71462;SDS011;59266;52.608;13.260;2023-05-10T08:29:05;6.20;;;2.70;;
71462;SDS011;59266;52.608;13.260;2023-05-10T08:31:31;6.03;;;2.55;;
71462;SDS011;59266;52.608;13.260;2023-05-10T08:34:00;6.13;;;2.60;;
71462;SDS011;59266;52.608;13.260;2023-05-10T08:36:27;5.18;;;2.30;;
71462;SDS011;59266;52.608;13.260;2023-05-10T08:38:54;7.78;;;2.58;;
71462;SDS011;59266;52.608;13.260;2023-05-10T08:41:22;5.50;;;2.40;;
71462;SDS011;59266;52.608;13.260;2023-05-10T08:43:53;6.75;;;2.80;;
71462;SDS011;59266;52.608;13.260;2023-05-10T08:46:21;6.50;;;2.72;;
71462;SDS011;59266;52.608;13.260;2023-05-10T08:48:50;9.75;;;2.67;;
71462;SDS011;59266;52.608;13.260;2023-05-10T08:51:19;7.10;;;2.85;;
71462;SDS011;59266;52.608;13.260;2023-05-10T08:53:50;9.40;;;2.40;;
71462;SDS011;59266;52.608;13.260;2023-05-10T08:56:16;5.95;;;2.55;;
71462;SDS011;59266;52.608;13.260;2023-05-10T08:58:47;6.95;;;2.80;;
71462;SDS011;59266;52.608;13.260;2023-05-10T09:01:13;5.40;;;2.03;;
71462;SDS011;59266;52.608;13.260;2023-05-10T09:03:43;6.05;;;2.38;;
71462;SDS011;59266;52.608;13.260;2023-05-10T09:06:12;10.60;;;2.58;;
71462;SDS011;59266;52.608;13.260;2023-05-10T09:08:42;5.00;;;2.35;;
71462;SDS011;59266;52.608;13.260;2023-05-10T09:11:09;7.50;;;2.58;;
71462;SDS011;59266;52.608;13.260;2023-05-10T09:13:37;6.32;;;2.78;;
71462;SDS011;59266;52.608;13.260;2023-05-10T09:16:05;7.88;;;2.45;;
71462;SDS011;59266;52.608;13.260;2023-05-10T09:18:45;7.55;;;2.67;;
71462;SDS011;59266;52.608;13.260;2023-05-10T09:21:14;8.60;;;2.80;;
71462;SDS011;59266;52.608;13.260;2023-05-10T09:23:45;7.32;;;2.30;;
71462;SDS011;59266;52.608;13.260;2023-05-10T09:26:14;6.20;;;2.40;;
71462;SDS011;59266;52.608;13.260;2023-05-10T09:28:54;6.10;;;2.50;;
71462;SDS011;59266;52.608;13.260;2023-05-10T09:31:22;6.80;;;2.58;;
71462;SDS011;59266;52.608;13.260;2023-05-10T09:33:51;11.32;;;2.88;;
71462;SDS011;59266;52.608;13.260;2023-05-10T09:36:18;10.27;;;2.60;;
71462;SDS011;59266;52.608;13.260;2023-05-10T09:38:45;10.85;;;2.85;;
71462;SDS011;59266;52.608;13.260;2023-05-10T09:41:21;9.25;;;3.03;;
71462;SDS011;59266;52.608;13.260;2023-05-10T09:43:49;7.15;;;2.80;;
71462;SDS011;59266;52.608;13.260;2023-05-10T09:46:16;7.55;;;2.55;;
71462;SDS011;59266;52.608;13.260;2023-05-10T09:48:46;10.10;;;2.65;;
71462;SDS011;59266;52.608;13.260;2023-05-10T09:51:23;10.98;;;2.90;;
71462;SDS011;59266;52.608;13.260;2023-05-10T09:54:08;7.60;;;2.45;;
71462;SDS011;59266;52.608;13.260;2023-05-10T09:56:41;11.85;;;3.00;;
71462;SDS011;59266;52.608;13.260;2023-05-10T09:59:11;11.60;;;3.47;;
71462;SDS011;59266;52.608;13.260;2023-05-10T10:01:39;6.53;;;2.53;;
71462;SDS011;59266;52.608;13.260;2023-05-10T10:04:15;7.43;;;2.50;;
71462;SDS011;59266;52.608;13.260;2023-05-10T10:06:42;9.85;;;2.50;;
71462;SDS011;59266;52.608;13.260;2023-05-10T10:09:10;7.63;;;2.72;;
71462;SDS011;59266;52.608;13.260;2023-05-10T10:11:37;7.00;;;2.75;;
71462;SDS011;59266;52.608;13.260;2023-05-10T10:14:05;5.90;;;2.53;;
71462;SDS011;59266;52.608;13.260;2023-05-10T10:16:33;7.35;;;2.78;;
71462;SDS011;59266;52.608;13.260;2023-05-10T10:19:00;6.68;;;2.28;;
71462;SDS011;59266;52.608;13.260;2023-05-10T10:21:32;6.43;;;2.50;;
71462;SDS011;59266;52.608;13.260;2023-05-10T10:24:01;7.53;;;3.00;;
71462;SDS011;59266;52.608;13.260;2023-05-10T10:26:34;6.15;;;2.47;;
71462;SDS011;59266;52.608;13.260;2023-05-10T10:31:55;6.15;;;2.60;;
71462;SDS011;59266;52.608;13.260;2023-05-10T10:34:30;8.00;;;2.60;;
71462;SDS011;59266;52.608;13.260;2023-05-10T10:37:06;8.13;;;2.70;;
71462;SDS011;59266;52.608;13.260;2023-05-10T10:39:37;9.02;;;2.53;;
71462;SDS011;59266;52.608;13.260;2023-05-10T10:42:10;5.90;;;2.60;;
71462;SDS011;59266;52.608;13.260;2023-05-10T10:44:37;8.05;;;2.63;;
71462;SDS011;59266;52.608;13.260;2023-05-10T10:52:20;6.05;;;2.38;;
71462;SDS011;59266;52.608;13.260;2023-05-10T10:54:50;12.00;;;3.83;;
71462;SDS011;59266;52.608;13.260;2023-05-10T10:57:24;7.18;;;2.95;;
71462;SDS011;59266;52.608;13.260;2023-05-10T11:02:51;5.20;;;2.30;;
71462;SDS011;59266;52.608;13.260;2023-05-10T11:07:55;6.50;;;2.45;;
71462;SDS011;59266;52.608;13.260;2023-05-10T11:10:25;8.40;;;2.78;;
71462;SDS011;59266;52.608;13.260;2023-05-10T11:13:00;5.55;;;2.20;;
71462;SDS011;59266;52.608;13.260;2023-05-10T11:15:28;5.60;;;2.53;;
71462;SDS011;59266;52.608;13.260;2023-05-10T11:17:56;6.82;;;2.50;;
71462;SDS011;59266;52.608;13.260;2023-05-10T11:20:23;7.38;;;2.55;;
71462;SDS011;59266;52.608;13.260;2023-05-10T11:23:10;5.25;;;2.15;;
71462;SDS011;59266;52.608;13.260;2023-05-10T11:25:42;6.68;;;2.30;;
71462;SDS011;59266;52.608;13.260;2023-05-10T11:28:12;6.43;;;2.25;;
71462;SDS011;59266;52.608;13.260;2023-05-10T11:30:39;7.45;;;2.40;;
71462;SDS011;59266;52.608;13.260;2023-05-10T11:33:07;6.05;;;2.10;;
71462;SDS011;59266;52.608;13.260;2023-05-10T11:35:38;5.22;;;2.10;;
71462;SDS011;59266;52.608;13.260;2023-05-10T11:38:09;6.82;;;2.33;;
71462;SDS011;59266;52.608;13.260;2023-05-10T11:40:37;4.78;;;2.05;;
71462;SDS011;59266;52.608;13.260;2023-05-10T11:43:04;6.50;;;2.42;;
71462;SDS011;59266;52.608;13.260;2023-05-10T11:45:33;6.07;;;2.38;;
71462;SDS011;59266;52.608;13.260;2023-05-10T11:48:02;5.75;;;2.47;;
71462;SDS011;59266;52.608;13.260;2023-05-10T11:50:36;7.32;;;2.67;;
71462;SDS011;59266;52.608;13.260;2023-05-10T11:53:04;6.68;;;2.53;;
71462;SDS011;59266;52.608;13.260;2023-05-10T11:55:33;6.82;;;2.38;;
71462;SDS011;59266;52.608;13.260;2023-05-10T11:58:00;6.00;;;2.33;;
71462;SDS011;59266;52.608;13.260;2023-05-10T12:00:29;5.88;;;2.30;;
71462;SDS011;59266;52.608;13.260;2023-05-10T12:03:01;5.20;;;2.13;;
71462;SDS011;59266;52.608;13.260;2023-05-10T12:05:31;6.22;;;2.47;;
71462;SDS011;59266;52.608;13.260;2023-05-10T12:08:13;5.40;;;2.10;;
71462;SDS011;59266;52.608;13.260;2023-05-10T12:10:41;5.25;;;2.10;;
71462;SDS011;59266;52.608;13.260;2023-05-10T12:13:11;9.30;;;2.00;;
71462;SDS011;59266;52.608;13.260;2023-05-10T12:15:42;7.35;;;2.25;;
71462;SDS011;59266;52.608;13.260;2023-05-10T12:18:09;5.43;;;2.30;;
71462;SDS011;59266;52.608;13.260;2023-05-10T12:20:37;10.25;;;2.70;;
71462;SDS011;59266;52.608;13.260;2023-05-10T12:23:08;9.57;;;2.20;;
71462;SDS011;59266;52.608;13.260;2023-05-10T12:25:37;7.35;;;2.20;;
71462;SDS011;59266;52.608;13.260;2023-05-10T12:28:06;6.80;;;2.33;;
71462;SDS011;59266;52.608;13.260;2023-05-10T12:30:34;6.25;;;2.20;;
71462;SDS011;59266;52.608;13.260;2023-05-10T12:33:06;9.57;;;2.50;;
71462;SDS011;59266;52.608;13.260;2023-05-10T12:35:48;9.15;;;2.53;;
71462;SDS011;59266;52.608;13.260;2023-05-10T12:40:51;8.05;;;2.50;;
71462;SDS011;59266;52.608;13.260;2023-05-10T12:43:18;5.00;;;2.25;;
71462;SDS011;59266;52.608;13.260;2023-05-10T12:45:45;7.85;;;2.47;;
71462;SDS011;59266;52.608;13.260;2023-05-10T12:48:15;6.18;;;2.58;;
71462;SDS011;59266;52.608;13.260;2023-05-10T12:50:42;7.90;;;2.97;;
71462;SDS011;59266;52.608;13.260;2023-05-10T12:53:11;5.53;;;2.38;;
71462;SDS011;59266;52.608;13.260;2023-05-10T12:55:37;6.65;;;2.38;;
71462;SDS011;59266;52.608;13.260;2023-05-10T12:58:04;9.35;;;2.33;;
71462;SDS011;59266;52.608;13.260;2023-05-10T13:00:33;9.88;;;2.80;;
71462;SDS011;59266;52.608;13.260;2023-05-10T13:03:04;6.32;;;2.28;;
71462;SDS011;59266;52.608;13.260;2023-05-10T13:05:34;8.10;;;2.60;;
71462;SDS011;59266;52.608;13.260;2023-05-10T13:08:00;6.65;;;2.10;;
71462;SDS011;59266;52.608;13.260;2023-05-10T13:10:30;9.57;;;2.47;;
71462;SDS011;59266;52.608;13.260;2023-05-10T13:12:58;6.72;;;2.35;;
71462;SDS011;59266;52.608;13.260;2023-05-10T13:15:25;7.03;;;2.50;;
71462;SDS011;59266;52.608;13.260;2023-05-10T13:17:52;5.35;;;2.03;;
71462;SDS011;59266;52.608;13.260;2023-05-10T13:20:20;6.25;;;2.40;;
71462;SDS011;59266;52.608;13.260;2023-05-10T13:22:48;5.78;;;2.30;;
71462;SDS011;59266;52.608;13.260;2023-05-10T13:25:17;6.63;;;2.63;;
71462;SDS011;59266;52.608;13.260;2023-05-10T13:27:43;8.52;;;2.78;;
71462;SDS011;59266;52.608;13.260;2023-05-10T13:30:16;7.40;;;2.67;;
71462;SDS011;59266;52.608;13.260;2023-05-10T13:35:12;5.32;;;2.30;;
71462;SDS011;59266;52.608;13.260;2023-05-10T13:37:38;6.55;;;2.55;;
71462;SDS011;59266;52.608;13.260;2023-05-10T13:40:07;8.27;;;2.78;;
71462;SDS011;59266;52.608;13.260;2023-05-10T13:42:34;6.78;;;2.30;;
71462;SDS011;59266;52.608;13.260;2023-05-10T13:45:03;5.85;;;2.15;;
71462;SDS011;59266;52.608;13.260;2023-05-10T13:47:30;7.10;;;2.50;;
71462;SDS011;59266;52.608;13.260;2023-05-10T13:49:59;6.47;;;2.50;;
71462;SDS011;59266;52.608;13.260;2023-05-10T13:52:29;6.47;;;2.50;;
71462;SDS011;59266;52.608;13.260;2023-05-10T13:54:58;9.35;;;2.53;;
71462;SDS011;59266;52.608;13.260;2023-05-10T13:57:25;7.57;;;2.58;;
71462;SDS011;59266;52.608;13.260;2023-05-10T13:59:52;6.28;;;2.25;;
71462;SDS011;59266;52.608;13.260;2023-05-10T14:02:22;5.82;;;2.50;;
71462;SDS011;59266;52.608;13.260;2023-05-10T14:04:49;8.35;;;2.30;;
71462;SDS011;59266;52.608;13.260;2023-05-10T14:07:17;6.93;;;2.53;;
71462;SDS011;59266;52.608;13.260;2023-05-10T14:09:44;6.25;;;2.30;;
71462;SDS011;59266;52.608;13.260;2023-05-10T14:12:11;7.07;;;2.70;;
71462;SDS011;59266;52.608;13.260;2023-05-10T14:14:38;8.85;;;2.67;;
71462;SDS011;59266;52.608;13.260;2023-05-10T14:17:06;7.78;;;2.63;;
71462;SDS011;59266;52.608;13.260;2023-05-10T14:19:37;8.18;;;2.45;;
71462;SDS011;59266;52.608;13.260;2023-05-10T14:22:05;7.40;;;2.28;;
71462;SDS011;59266;52.608;13.260;2023-05-10T14:24:43;5.40;;;2.15;;
71462;SDS011;59266;52.608;13.260;2023-05-10T14:27:14;7.10;;;2.50;;
71462;SDS011;59266;52.608;13.260;2023-05-10T14:29:41;6.45;;;2.22;;
71462;SDS011;59266;52.608;13.260;2023-05-10T14:32:11;5.35;;;2.30;;
71462;SDS011;59266;52.608;13.260;2023-05-10T14:35:13;5.85;;;2.28;;
71462;SDS011;59266;52.608;13.260;2023-05-10T14:37:43;6.40;;;2.28;;
71462;SDS011;59266;52.608;13.260;2023-05-10T14:40:18;8.95;;;2.42;;
71462;SDS011;59266;52.608;13.260;2023-05-10T14:42:54;7.20;;;2.30;;
71462;SDS011;59266;52.608;13.260;2023-05-10T14:45:20;7.47;;;2.50;;
71462;SDS011;59266;52.608;13.260;2023-05-10T14:47:47;5.70;;;2.10;;
71462;SDS011;59266;52.608;13.260;2023-05-10T14:50:14;11.15;;;2.60;;
71462;SDS011;59266;52.608;13.260;2023-05-10T14:53:00;7.25;;;2.40;;
71462;SDS011;59266;52.608;13.260;2023-05-10T14:55:27;5.25;;;1.98;;
71462;SDS011;59266;52.608;13.260;2023-05-10T14:57:54;8.30;;;3.03;;
71462;SDS011;59266;52.608;13.260;2023-05-10T15:00:23;9.45;;;2.28;;
71462;SDS011;59266;52.608;13.260;2023-05-10T15:02:49;8.90;;;2.40;;
71462;SDS011;59266;52.608;13.260;2023-05-10T15:05:17;8.07;;;2.70;;
71462;SDS011;59266;52.608;13.260;2023-05-10T15:07:44;6.00;;;2.10;;
71462;SDS011;59266;52.608;13.260;2023-05-10T15:10:11;6.80;;;2.35;;
71462;SDS011;59266;52.608;13.260;2023-05-10T15:12:38;7.22;;;2.30;;
71462;SDS011;59266;52.608;13.260;2023-05-10T15:15:07;4.75;;;2.20;;
71462;SDS011;59266;52.608;13.260;2023-05-10T15:17:34;5.63;;;2.20;;
71462;SDS011;59266;52.608;13.260;2023-05-10T15:20:01;5.78;;;2.22;;